Hai Gong You 302 — BCGG — position and weather

sailwx.info

Track history (hours):
 
Tides and Currents Weather Stations Pressure Air Temp Water Temp Dewpoint Dewpoint Depression Visibility Wind Speed Wind Dir Waves Ship Positions

Hai Gong You 302

Last reported at 2018-Feb-09 04:30 UTC. Time now 2018-Feb-24 22:02 UTC.
Position N 09°30' W 016°38'.
Warning: this ship's position is 15 days out of date.

Length 95 m; draft 6 m.

Type: Tanker. MMSI: 412660220.

Date/timePositionNaut miles runAvg speedWind from/ knotsBaromVisibWave heightAir tempDewpointWater temp
2018-Feb-09 04:30N 09°30' W 016°38'26 7.5
2018-Feb-09 01:00N 09°05' W 016°31'43 7.2
2018-Feb-08 19:00N 08°55' W 015°49'74 7.8
2018-Feb-08 09:30N 08°47' W 014°35'8 7.9
2018-Feb-08 08:30N 08°46' W 014°27'4 8.0
2018-Feb-08 08:00N 08°45' W 014°23'4 8.1
2018-Feb-08 07:30N 08°45' W 014°19'8 8.0
2018-Feb-08 06:30N 08°44' W 014°11'4 8.0
2018-Feb-08 06:00N 08°43' W 014°07'8 7.9
2018-Feb-08 05:00N 08°42' W 013°59'4 8.1
2018-Feb-08 04:30N 08°42' W 013°55'8 8.2
2018-Feb-08 03:30N 08°41' W 013°46'9 2.7
2018-Feb-08 00:04N 08°40' W 013°37'0 0.0
2018-Feb-08 00:00N 08°40' W 013°37'0 0.0
2018-Feb-07 23:30N 08°40' W 013°37'0 0.0
2018-Feb-07 22:55N 08°40' W 013°37'0 0.0
2018-Feb-07 22:30N 08°40' W 013°37'0 0.0
2018-Feb-07 22:00N 08°40' W 013°37'41 1.7
2018-Feb-06 21:55N 08°06' W 014°00'20 8.2
2018-Feb-06 19:25N 08°10' W 014°20'3 7.6
2018-Feb-06 19:00N 08°10' W 014°24'4 7.5
2018-Feb-06 18:30N 08°11' W 014°27'4 7.8
2018-Feb-06 18:00N 08°12' W 014°31'4 7.9
2018-Feb-06 17:30N 08°12' W 014°35'5 8.0
2018-Feb-06 16:51N 08°14' W 014°40'3 7.9
2018-Feb-06 16:30N 08°14' W 014°43'4 8.0
2018-Feb-06 16:00N 08°15' W 014°47'4 8.2
2018-Feb-06 15:30N 08°16' W 014°51'48 6.6
2018-Feb-06 08:14N 08°27' W 015°38'0 0.9
2018-Feb-06 08:00N 08°27' W 015°38'0 0.8
2018-Feb-06 07:30N 08°27' W 015°39'18 2.5
2018-Feb-06 00:25N 08°38' W 015°53'3 8.0
2018-Feb-06 00:00N 08°39' W 015°56'18 8.3
2018-Feb-05 21:47N 08°49' W 016°11'30 8.1
2018-Feb-05 18:03N 09°07' W 016°36'1 8.4
2018-Feb-05 17:56N 09°08' W 016°36'4 8.6
2018-Feb-05 17:30N 09°11' W 016°38'4 8.4
2018-Feb-05 17:00N 09°15' W 016°41'  
2018-Jan-30 23:20N 27°45' W 015°19'3 7.7
2018-Jan-30 22:59N 27°48' W 015°19'4 7.7
2018-Jan-30 22:29N 27°52' W 015°18'8 8.0
2018-Jan-30 21:30N 27°60' W 015°19'4 8.2
2018-Jan-30 21:00N 28°03' W 015°21'4 7.9
2018-Jan-30 20:30N 28°07' W 015°23'2 4.6
2018-Jan-30 20:00N 28°09' W 015°24'0 0.0
2018-Jan-30 19:30N 28°09' W 015°24'0 0.0
2018-Jan-30 19:00N 28°09' W 015°24'0 0.0
2018-Jan-30 18:30N 28°09' W 015°24'0 0.0
2018-Jan-30 18:00N 28°09' W 015°24'0 0.0
2018-Jan-30 17:30N 28°09' W 015°24'0 0.0
2018-Jan-30 17:00N 28°09' W 015°24'0 0.0
2018-Jan-30 16:30N 28°09' W 015°24'0 0.0
2018-Jan-30 16:00N 28°09' W 015°24'0 0.0
2018-Jan-30 15:30N 28°09' W 015°24'0 0.0
2018-Jan-30 15:00N 28°09' W 015°24'0 0.0
2018-Jan-30 14:30N 28°09' W 015°24'0 0.0
2018-Jan-30 13:30N 28°09' W 015°24'0 0.0
2018-Jan-30 13:00N 28°09' W 015°24'0 0.0
2018-Jan-30 12:30N 28°09' W 015°24'0 0.0
2018-Jan-30 11:57N 28°09' W 015°24'0 0.0
2018-Jan-30 11:30N 28°09' W 015°24'0 0.0
2018-Jan-30 10:30N 28°09' W 015°24'0 0.0
2018-Jan-30 09:30N 28°09' W 015°24'0 0.0
2018-Jan-30 09:00N 28°09' W 015°24'0 0.0
2018-Jan-30 08:30N 28°09' W 015°24'0 0.0
2018-Jan-30 08:00N 28°09' W 015°24'0 0.0
2018-Jan-30 07:30N 28°09' W 015°24'0 0.0
2018-Jan-30 07:00N 28°09' W 015°24'0 0.0
2018-Jan-30 06:30N 28°09' W 015°24'0 0.0
2018-Jan-30 06:00N 28°09' W 015°24'0 0.0
2018-Jan-30 05:30N 28°09' W 015°24'0 0.0
2018-Jan-30 05:00N 28°09' W 015°24'  
Track history (hours):
 
Tides and Currents Weather Stations Pressure Air Temp Water Temp Dewpoint Dewpoint Depression Visibility Wind Speed Wind Dir Waves Ship Positions

Hai Gong You 302

Last reported at 2018-Feb-09 04:30 UTC. Time now 2018-Feb-24 22:02 UTC.
Position N 09°30' W 016°38'.
Warning: this ship's position is 15 days out of date.

Length 95 m; draft 6 m.

Type: Tanker. MMSI: 412660220.

Date/timePositionNaut miles runAvg speedWind from/ knotsBaromVisibWave heightAir tempDewpointWater temp
2018-Feb-09 04:30N 09°30' W 016°38'26 7.5
2018-Feb-09 01:00N 09°05' W 016°31'43 7.2
2018-Feb-08 19:00N 08°55' W 015°49'74 7.8
2018-Feb-08 09:30N 08°47' W 014°35'8 7.9
2018-Feb-08 08:30N 08°46' W 014°27'4 8.0
2018-Feb-08 08:00N 08°45' W 014°23'4 8.1
2018-Feb-08 07:30N 08°45' W 014°19'8 8.0
2018-Feb-08 06:30N 08°44' W 014°11'4 8.0
2018-Feb-08 06:00N 08°43' W 014°07'8 7.9
2018-Feb-08 05:00N 08°42' W 013°59'4 8.1
2018-Feb-08 04:30N 08°42' W 013°55'8 8.2
2018-Feb-08 03:30N 08°41' W 013°46'9 2.7
2018-Feb-08 00:04N 08°40' W 013°37'0 0.0
2018-Feb-08 00:00N 08°40' W 013°37'0 0.0
2018-Feb-07 23:30N 08°40' W 013°37'0 0.0
2018-Feb-07 22:55N 08°40' W 013°37'0 0.0
2018-Feb-07 22:30N 08°40' W 013°37'0 0.0
2018-Feb-07 22:00N 08°40' W 013°37'41 1.7
2018-Feb-06 21:55N 08°06' W 014°00'20 8.2
2018-Feb-06 19:25N 08°10' W 014°20'3 7.6
2018-Feb-06 19:00N 08°10' W 014°24'4 7.5
2018-Feb-06 18:30N 08°11' W 014°27'4 7.8
2018-Feb-06 18:00N 08°12' W 014°31'4 7.9
2018-Feb-06 17:30N 08°12' W 014°35'5 8.0
2018-Feb-06 16:51N 08°14' W 014°40'3 7.9
2018-Feb-06 16:30N 08°14' W 014°43'4 8.0
2018-Feb-06 16:00N 08°15' W 014°47'4 8.2
2018-Feb-06 15:30N 08°16' W 014°51'48 6.6
2018-Feb-06 08:14N 08°27' W 015°38'0 0.9
2018-Feb-06 08:00N 08°27' W 015°38'0 0.8
2018-Feb-06 07:30N 08°27' W 015°39'18 2.5
2018-Feb-06 00:25N 08°38' W 015°53'3 8.0
2018-Feb-06 00:00N 08°39' W 015°56'18 8.3
2018-Feb-05 21:47N 08°49' W 016°11'30 8.1
2018-Feb-05 18:03N 09°07' W 016°36'1 8.4
2018-Feb-05 17:56N 09°08' W 016°36'4 8.6
2018-Feb-05 17:30N 09°11' W 016°38'4 8.4
2018-Feb-05 17:00N 09°15' W 016°41'  
2018-Jan-30 23:20N 27°45' W 015°19'3 7.7
2018-Jan-30 22:59N 27°48' W 015°19'4 7.7
2018-Jan-30 22:29N 27°52' W 015°18'8 8.0
2018-Jan-30 21:30N 27°60' W 015°19'4 8.2
2018-Jan-30 21:00N 28°03' W 015°21'4 7.9
2018-Jan-30 20:30N 28°07' W 015°23'2 4.6
2018-Jan-30 20:00N 28°09' W 015°24'0 0.0
2018-Jan-30 19:30N 28°09' W 015°24'0 0.0
2018-Jan-30 19:00N 28°09' W 015°24'0 0.0
2018-Jan-30 18:30N 28°09' W 015°24'0 0.0
2018-Jan-30 18:00N 28°09' W 015°24'0 0.0
2018-Jan-30 17:30N 28°09' W 015°24'0 0.0
2018-Jan-30 17:00N 28°09' W 015°24'0 0.0
2018-Jan-30 16:30N 28°09' W 015°24'0 0.0
2018-Jan-30 16:00N 28°09' W 015°24'0 0.0
2018-Jan-30 15:30N 28°09' W 015°24'0 0.0
2018-Jan-30 15:00N 28°09' W 015°24'0 0.0
2018-Jan-30 14:30N 28°09' W 015°24'0 0.0
2018-Jan-30 13:30N 28°09' W 015°24'0 0.0
2018-Jan-30 13:00N 28°09' W 015°24'0 0.0
2018-Jan-30 12:30N 28°09' W 015°24'0 0.0
2018-Jan-30 11:57N 28°09' W 015°24'0 0.0
2018-Jan-30 11:30N 28°09' W 015°24'0 0.0
2018-Jan-30 10:30N 28°09' W 015°24'0 0.0
2018-Jan-30 09:30N 28°09' W 015°24'0 0.0
2018-Jan-30 09:00N 28°09' W 015°24'0 0.0
2018-Jan-30 08:30N 28°09' W 015°24'0 0.0
2018-Jan-30 08:00N 28°09' W 015°24'0 0.0
2018-Jan-30 07:30N 28°09' W 015°24'0 0.0
2018-Jan-30 07:00N 28°09' W 015°24'0 0.0
2018-Jan-30 06:30N 28°09' W 015°24'0 0.0
2018-Jan-30 06:00N 28°09' W 015°24'0 0.0
2018-Jan-30 05:30N 28°09' W 015°24'0 0.0
2018-Jan-30 05:00N 28°09' W 015°24'  

Dump ship's entire track history